Pagrindinis puslapis
METAR-TAF:

METAR-TAF

Oro uostai :

Dėras, Vengrija

platuma: 47-37-28N, ilguma: 017-48-49E, Aukštis: 129 m

Dabartinis oras

Ataskaita buvo paskelbta 51 minutes, ne 04:15 UTC
Vėjas 7 kt iš Šiaurės/Šiaurės Vakarų
Temperatūra 14°C
Drėgmė 94%
Slėgis 1010 hPa
Matomumas 10 km arba daugiau
Apsiniaukę ne aukštis 1200 ft
lietus,

METAR: LHPR 220415Z AUTO 34007KT 9999 -RA OVC012 14/13 Q1010 RERA NOSIG

Laikas: 07:06 (05:06 UTC)

Prognozė

Ataskaita buvo paskelbta 2 valandos ir 51 minutes, ne 02:15 UTC
Prognozė galioja nuo 22 metu 03 UTC su 22 metu 12 UTC
Vėjas 3 kt nuo kintamojo kryptimis
Matomumas: 8000 m
Išsisklaidę debesys ne aukštis 3000 ft
Išsisklaidę debesys ne aukštis 8000 ft
Laikinai
nuo 22 metu 03 UTC su 22 metu 06 UTC
Matomumas: 2500 m
Su prošvaistėmis ne aukštis 400 ft
Apsiniaukę ne aukštis 2000 ft
lietus, lietus, rūkana
Tapsmas
nuo 22 metu 04 UTC su 22 metu 07 UTC
Vėjas 8 kt iš Vakarų/Šiaurės Vakarų

TAF: LHPR 220215Z 2203/2212 VRB03KT 8000 SCT030 SCT080 TEMPO 2203/2206 2500 RA SHRA BR BKN004 OVC020 BECMG 2204/2207 30008KT

Orai ataskaitas ir orų prognozės (METAR, TAF).

turimą stotys yra geltonos ir raudonos taškus žemėlapyje.

Perkelti pele per norėdami pamatyti stoties vardą.

Tada spustelėkite, norėdami matyti oro stebėjimo ir prognozės.

Norėdami pakeisti žemėlapį: spustelėkite ant žalios mygtukų su juodo kryžiaus žemyn,; žalią mygtuką su brūkšneliu, jei norite nutolinti; arba žalių rodyklių gretimoms žemėlapius.


METAR-TAF: